sensor_id;sensor_type;location;lat;lon;timestamp;P1;durP1;ratioP1;P2;durP2;ratioP2
16969;SDS011;8601;48.718;8.992;2023-02-10T00:01:19;37.97;;;24.47;;
16969;SDS011;8601;48.718;8.992;2023-02-10T00:03:47;32.10;;;22.47;;
16969;SDS011;8601;48.718;8.992;2023-02-10T00:06:15;39.50;;;23.07;;
16969;SDS011;8601;48.718;8.992;2023-02-10T00:08:45;38.63;;;23.87;;
16969;SDS011;8601;48.718;8.992;2023-02-10T00:11:13;35.93;;;23.80;;
16969;SDS011;8601;48.718;8.992;2023-02-10T00:13:40;33.20;;;23.30;;
16969;SDS011;8601;48.718;8.992;2023-02-10T00:16:09;34.80;;;22.50;;
16969;SDS011;8601;48.718;8.992;2023-02-10T00:18:39;37.43;;;22.30;;
16969;SDS011;8601;48.718;8.992;2023-02-10T00:21:06;33.53;;;22.33;;
16969;SDS011;8601;48.718;8.992;2023-02-10T00:23:34;35.87;;;23.10;;
16969;SDS011;8601;48.718;8.992;2023-02-10T00:26:02;34.43;;;22.97;;
16969;SDS011;8601;48.718;8.992;2023-02-10T00:28:29;35.70;;;23.17;;
16969;SDS011;8601;48.718;8.992;2023-02-10T00:30:56;34.97;;;22.63;;
16969;SDS011;8601;48.718;8.992;2023-02-10T00:33:23;39.93;;;24.67;;
16969;SDS011;8601;48.718;8.992;2023-02-10T00:35:52;31.53;;;22.63;;
16969;SDS011;8601;48.718;8.992;2023-02-10T00:38:18;33.63;;;23.20;;
16969;SDS011;8601;48.718;8.992;2023-02-10T00:40:45;36.23;;;22.83;;
16969;SDS011;8601;48.718;8.992;2023-02-10T00:43:13;32.43;;;22.13;;
16969;SDS011;8601;48.718;8.992;2023-02-10T00:45:40;36.87;;;22.87;;
16969;SDS011;8601;48.718;8.992;2023-02-10T00:48:07;34.87;;;22.60;;
16969;SDS011;8601;48.718;8.992;2023-02-10T00:50:33;30.97;;;22.13;;
16969;SDS011;8601;48.718;8.992;2023-02-10T00:53:02;34.13;;;23.07;;
16969;SDS011;8601;48.718;8.992;2023-02-10T00:55:29;31.73;;;22.20;;
16969;SDS011;8601;48.718;8.992;2023-02-10T00:57:56;36.00;;;23.10;;
16969;SDS011;8601;48.718;8.992;2023-02-10T01:00:22;32.30;;;22.00;;
16969;SDS011;8601;48.718;8.992;2023-02-10T01:02:49;36.10;;;22.80;;
16969;SDS011;8601;48.718;8.992;2023-02-10T01:05:16;30.83;;;20.70;;
16969;SDS011;8601;48.718;8.992;2023-02-10T01:07:43;34.40;;;22.53;;
16969;SDS011;8601;48.718;8.992;2023-02-10T01:10:11;33.53;;;21.80;;
16969;SDS011;8601;48.718;8.992;2023-02-10T01:12:38;35.53;;;22.83;;
16969;SDS011;8601;48.718;8.992;2023-02-10T01:15:06;33.40;;;22.13;;
16969;SDS011;8601;48.718;8.992;2023-02-10T01:17:33;32.00;;;22.47;;
16969;SDS011;8601;48.718;8.992;2023-02-10T01:20:00;36.37;;;23.37;;
16969;SDS011;8601;48.718;8.992;2023-02-10T01:22:27;32.00;;;22.07;;
16969;SDS011;8601;48.718;8.992;2023-02-10T01:24:54;31.47;;;22.57;;
16969;SDS011;8601;48.718;8.992;2023-02-10T01:27:23;35.10;;;22.53;;
16969;SDS011;8601;48.718;8.992;2023-02-10T01:29:50;32.27;;;22.27;;
16969;SDS011;8601;48.718;8.992;2023-02-10T01:32:16;34.17;;;22.37;;
16969;SDS011;8601;48.718;8.992;2023-02-10T01:34:43;30.33;;;21.60;;
16969;SDS011;8601;48.718;8.992;2023-02-10T01:37:10;35.20;;;23.47;;
16969;SDS011;8601;48.718;8.992;2023-02-10T01:39:37;31.27;;;21.63;;
16969;SDS011;8601;48.718;8.992;2023-02-10T01:42:05;31.80;;;21.87;;
16969;SDS011;8601;48.718;8.992;2023-02-10T01:47:49;35.00;;;22.17;;
16969;SDS011;8601;48.718;8.992;2023-02-10T01:50:19;36.00;;;24.13;;
16969;SDS011;8601;48.718;8.992;2023-02-10T01:52:47;35.53;;;22.00;;
16969;SDS011;8601;48.718;8.992;2023-02-10T01:55:18;33.20;;;24.13;;
16969;SDS011;8601;48.718;8.992;2023-02-10T01:57:48;31.77;;;21.53;;
16969;SDS011;8601;48.718;8.992;2023-02-10T02:00:19;32.47;;;22.50;;
16969;SDS011;8601;48.718;8.992;2023-02-10T02:02:47;30.77;;;21.70;;
16969;SDS011;8601;48.718;8.992;2023-02-10T02:05:18;33.17;;;22.60;;
16969;SDS011;8601;48.718;8.992;2023-02-10T02:07:48;32.30;;;23.10;;
16969;SDS011;8601;48.718;8.992;2023-02-10T02:10:18;36.10;;;23.47;;
16969;SDS011;8601;48.718;8.992;2023-02-10T02:12:47;35.23;;;23.53;;
16969;SDS011;8601;48.718;8.992;2023-02-10T02:15:23;37.93;;;22.53;;
16969;SDS011;8601;48.718;8.992;2023-02-10T02:18:00;30.20;;;22.17;;
16969;SDS011;8601;48.718;8.992;2023-02-10T02:20:51;32.00;;;21.03;;
16969;SDS011;8601;48.718;8.992;2023-02-10T02:23:48;32.77;;;22.33;;
16969;SDS011;8601;48.718;8.992;2023-02-10T02:26:51;33.87;;;22.47;;
16969;SDS011;8601;48.718;8.992;2023-02-10T02:32:35;35.23;;;23.40;;
16969;SDS011;8601;48.718;8.992;2023-02-10T02:35:06;34.60;;;22.50;;
16969;SDS011;8601;48.718;8.992;2023-02-10T02:37:37;38.83;;;24.30;;
16969;SDS011;8601;48.718;8.992;2023-02-10T02:40:07;32.70;;;22.33;;
16969;SDS011;8601;48.718;8.992;2023-02-10T02:42:36;38.03;;;22.83;;
16969;SDS011;8601;48.718;8.992;2023-02-10T02:45:04;33.37;;;22.13;;
16969;SDS011;8601;48.718;8.992;2023-02-10T02:47:39;35.93;;;23.60;;
16969;SDS011;8601;48.718;8.992;2023-02-10T02:50:25;33.97;;;24.17;;
16969;SDS011;8601;48.718;8.992;2023-02-10T02:52:59;34.03;;;23.23;;
16969;SDS011;8601;48.718;8.992;2023-02-10T02:55:36;34.67;;;23.20;;
16969;SDS011;8601;48.718;8.992;2023-02-10T02:58:15;35.93;;;24.17;;
16969;SDS011;8601;48.718;8.992;2023-02-10T03:00:47;27.70;;;20.60;;
16969;SDS011;8601;48.718;8.992;2023-02-10T03:03:18;34.57;;;22.53;;
16969;SDS011;8601;48.718;8.992;2023-02-10T03:05:45;34.10;;;22.60;;
16969;SDS011;8601;48.718;8.992;2023-02-10T03:08:12;30.20;;;20.83;;
16969;SDS011;8601;48.718;8.992;2023-02-10T03:10:39;33.93;;;22.50;;
16969;SDS011;8601;48.718;8.992;2023-02-10T03:13:05;36.07;;;21.93;;
16969;SDS011;8601;48.718;8.992;2023-02-10T03:15:32;34.63;;;23.00;;
16969;SDS011;8601;48.718;8.992;2023-02-10T03:17:59;34.03;;;23.03;;
16969;SDS011;8601;48.718;8.992;2023-02-10T03:20:28;37.30;;;23.00;;
16969;SDS011;8601;48.718;8.992;2023-02-10T03:22:54;31.63;;;22.93;;
16969;SDS011;8601;48.718;8.992;2023-02-10T03:25:21;32.83;;;21.33;;
16969;SDS011;8601;48.718;8.992;2023-02-10T03:27:48;32.03;;;21.80;;
16969;SDS011;8601;48.718;8.992;2023-02-10T03:30:15;30.43;;;20.33;;
16969;SDS011;8601;48.718;8.992;2023-02-10T03:32:42;33.83;;;20.80;;
16969;SDS011;8601;48.718;8.992;2023-02-10T03:35:09;33.37;;;23.17;;
16969;SDS011;8601;48.718;8.992;2023-02-10T03:37:37;34.53;;;23.03;;
16969;SDS011;8601;48.718;8.992;2023-02-10T03:40:04;33.27;;;23.33;;
16969;SDS011;8601;48.718;8.992;2023-02-10T03:42:31;35.53;;;21.67;;
16969;SDS011;8601;48.718;8.992;2023-02-10T03:44:58;33.73;;;22.10;;
16969;SDS011;8601;48.718;8.992;2023-02-10T03:47:24;31.47;;;21.63;;
16969;SDS011;8601;48.718;8.992;2023-02-10T03:49:51;33.60;;;21.97;;
16969;SDS011;8601;48.718;8.992;2023-02-10T03:52:18;32.70;;;22.40;;
16969;SDS011;8601;48.718;8.992;2023-02-10T03:54:47;34.63;;;21.97;;
16969;SDS011;8601;48.718;8.992;2023-02-10T03:57:14;36.00;;;23.27;;
16969;SDS011;8601;48.718;8.992;2023-02-10T03:59:41;31.63;;;22.67;;
16969;SDS011;8601;48.718;8.992;2023-02-10T04:02:08;32.63;;;22.33;;
16969;SDS011;8601;48.718;8.992;2023-02-10T04:04:35;35.33;;;23.40;;
16969;SDS011;8601;48.718;8.992;2023-02-10T04:07:02;28.17;;;20.70;;
16969;SDS011;8601;48.718;8.992;2023-02-10T04:09:36;35.80;;;21.87;;
16969;SDS011;8601;48.718;8.992;2023-02-10T04:12:05;32.23;;;21.33;;
16969;SDS011;8601;48.718;8.992;2023-02-10T04:14:44;34.13;;;23.77;;
16969;SDS011;8601;48.718;8.992;2023-02-10T04:17:12;34.50;;;22.33;;
16969;SDS011;8601;48.718;8.992;2023-02-10T04:19:39;31.60;;;21.73;;
16969;SDS011;8601;48.718;8.992;2023-02-10T04:22:06;31.90;;;22.43;;
16969;SDS011;8601;48.718;8.992;2023-02-10T04:24:33;33.60;;;22.00;;
16969;SDS011;8601;48.718;8.992;2023-02-10T04:26:59;32.20;;;22.17;;
16969;SDS011;8601;48.718;8.992;2023-02-10T04:29:28;36.73;;;22.63;;
16969;SDS011;8601;48.718;8.992;2023-02-10T04:31:56;32.63;;;22.30;;
16969;SDS011;8601;48.718;8.992;2023-02-10T04:34:25;32.90;;;22.17;;
16969;SDS011;8601;48.718;8.992;2023-02-10T04:36:51;31.73;;;20.97;;
16969;SDS011;8601;48.718;8.992;2023-02-10T04:39:18;31.47;;;21.40;;
16969;SDS011;8601;48.718;8.992;2023-02-10T04:41:45;34.80;;;22.07;;
16969;SDS011;8601;48.718;8.992;2023-02-10T04:44:13;34.87;;;22.80;;
16969;SDS011;8601;48.718;8.992;2023-02-10T04:46:41;30.43;;;20.70;;
16969;SDS011;8601;48.718;8.992;2023-02-10T04:49:08;29.73;;;21.00;;
16969;SDS011;8601;48.718;8.992;2023-02-10T04:51:35;33.37;;;21.43;;
16969;SDS011;8601;48.718;8.992;2023-02-10T04:54:02;35.53;;;22.27;;
16969;SDS011;8601;48.718;8.992;2023-02-10T04:56:29;34.40;;;22.03;;
16969;SDS011;8601;48.718;8.992;2023-02-10T04:58:57;32.17;;;21.13;;
16969;SDS011;8601;48.718;8.992;2023-02-10T05:01:24;31.00;;;21.97;;
16969;SDS011;8601;48.718;8.992;2023-02-10T05:03:52;34.07;;;21.77;;
16969;SDS011;8601;48.718;8.992;2023-02-10T05:06:19;36.10;;;23.70;;
16969;SDS011;8601;48.718;8.992;2023-02-10T05:08:46;34.63;;;22.03;;
16969;SDS011;8601;48.718;8.992;2023-02-10T05:11:15;31.30;;;22.13;;
16969;SDS011;8601;48.718;8.992;2023-02-10T05:13:43;31.10;;;21.40;;
16969;SDS011;8601;48.718;8.992;2023-02-10T05:16:11;32.17;;;21.40;;
16969;SDS011;8601;48.718;8.992;2023-02-10T05:18:39;32.23;;;22.20;;
16969;SDS011;8601;48.718;8.992;2023-02-10T05:21:08;31.60;;;21.43;;
16969;SDS011;8601;48.718;8.992;2023-02-10T05:23:36;30.07;;;22.57;;
16969;SDS011;8601;48.718;8.992;2023-02-10T05:26:04;34.07;;;21.53;;
16969;SDS011;8601;48.718;8.992;2023-02-10T05:28:31;34.10;;;22.83;;
16969;SDS011;8601;48.718;8.992;2023-02-10T05:30:58;34.47;;;21.80;;
16969;SDS011;8601;48.718;8.992;2023-02-10T05:33:25;30.43;;;20.57;;
16969;SDS011;8601;48.718;8.992;2023-02-10T05:35:53;31.10;;;21.53;;
16969;SDS011;8601;48.718;8.992;2023-02-10T05:38:23;35.80;;;22.17;;
16969;SDS011;8601;48.718;8.992;2023-02-10T05:40:51;34.70;;;22.07;;
16969;SDS011;8601;48.718;8.992;2023-02-10T05:43:20;30.07;;;21.93;;
16969;SDS011;8601;48.718;8.992;2023-02-10T05:45:47;35.77;;;22.30;;
16969;SDS011;8601;48.718;8.992;2023-02-10T05:48:14;31.47;;;21.77;;
16969;SDS011;8601;48.718;8.992;2023-02-10T05:50:41;33.07;;;21.33;;
16969;SDS011;8601;48.718;8.992;2023-02-10T05:53:08;33.23;;;20.77;;
16969;SDS011;8601;48.718;8.992;2023-02-10T05:55:36;33.70;;;21.83;;
16969;SDS011;8601;48.718;8.992;2023-02-10T05:58:04;31.37;;;21.10;;
16969;SDS011;8601;48.718;8.992;2023-02-10T06:00:31;33.03;;;21.33;;
16969;SDS011;8601;48.718;8.992;2023-02-10T06:02:58;33.20;;;21.87;;
16969;SDS011;8601;48.718;8.992;2023-02-10T06:05:27;32.40;;;20.80;;
16969;SDS011;8601;48.718;8.992;2023-02-10T06:07:53;32.67;;;22.70;;
16969;SDS011;8601;48.718;8.992;2023-02-10T06:10:20;33.60;;;21.37;;
16969;SDS011;8601;48.718;8.992;2023-02-10T06:12:50;30.60;;;21.57;;
16969;SDS011;8601;48.718;8.992;2023-02-10T06:15:17;34.13;;;22.27;;
16969;SDS011;8601;48.718;8.992;2023-02-10T06:17:44;28.73;;;19.23;;
16969;SDS011;8601;48.718;8.992;2023-02-10T06:20:17;29.30;;;19.87;;
16969;SDS011;8601;48.718;8.992;2023-02-10T06:22:43;31.53;;;21.17;;
16969;SDS011;8601;48.718;8.992;2023-02-10T06:25:10;31.63;;;22.27;;
16969;SDS011;8601;48.718;8.992;2023-02-10T06:27:37;31.00;;;20.27;;
16969;SDS011;8601;48.718;8.992;2023-02-10T06:30:06;35.03;;;21.67;;
16969;SDS011;8601;48.718;8.992;2023-02-10T06:32:34;32.90;;;20.57;;
16969;SDS011;8601;48.718;8.992;2023-02-10T06:35:01;31.77;;;20.30;;
16969;SDS011;8601;48.718;8.992;2023-02-10T06:37:28;31.13;;;21.47;;
16969;SDS011;8601;48.718;8.992;2023-02-10T06:39:55;32.00;;;20.60;;
16969;SDS011;8601;48.718;8.992;2023-02-10T06:42:22;33.77;;;21.80;;
16969;SDS011;8601;48.718;8.992;2023-02-10T06:44:49;31.30;;;20.27;;
16969;SDS011;8601;48.718;8.992;2023-02-10T06:47:17;33.90;;;21.73;;
16969;SDS011;8601;48.718;8.992;2023-02-10T06:49:44;27.90;;;21.40;;
16969;SDS011;8601;48.718;8.992;2023-02-10T06:52:11;32.83;;;21.97;;
16969;SDS011;8601;48.718;8.992;2023-02-10T06:54:38;34.63;;;21.17;;
16969;SDS011;8601;48.718;8.992;2023-02-10T06:57:06;30.57;;;22.33;;
16969;SDS011;8601;48.718;8.992;2023-02-10T06:59:33;30.43;;;21.80;;
16969;SDS011;8601;48.718;8.992;2023-02-10T07:02:00;31.87;;;21.57;;
16969;SDS011;8601;48.718;8.992;2023-02-10T07:04:30;35.30;;;24.03;;
16969;SDS011;8601;48.718;8.992;2023-02-10T07:06:58;37.07;;;24.17;;
16969;SDS011;8601;48.718;8.992;2023-02-10T07:09:25;30.80;;;22.67;;
16969;SDS011;8601;48.718;8.992;2023-02-10T07:11:52;32.60;;;22.73;;
16969;SDS011;8601;48.718;8.992;2023-02-10T07:14:19;34.20;;;24.03;;
16969;SDS011;8601;48.718;8.992;2023-02-10T07:16:45;32.60;;;23.43;;
16969;SDS011;8601;48.718;8.992;2023-02-10T07:19:13;33.30;;;21.80;;
16969;SDS011;8601;48.718;8.992;2023-02-10T07:21:41;35.93;;;22.17;;
16969;SDS011;8601;48.718;8.992;2023-02-10T07:24:08;34.07;;;24.43;;
16969;SDS011;8601;48.718;8.992;2023-02-10T07:26:35;35.37;;;24.23;;
16969;SDS011;8601;48.718;8.992;2023-02-10T07:29:02;34.03;;;24.10;;
16969;SDS011;8601;48.718;8.992;2023-02-10T07:31:29;34.57;;;23.03;;
16969;SDS011;8601;48.718;8.992;2023-02-10T07:33:59;34.23;;;24.20;;
16969;SDS011;8601;48.718;8.992;2023-02-10T07:36:26;37.30;;;24.33;;
16969;SDS011;8601;48.718;8.992;2023-02-10T07:38:55;32.87;;;22.93;;
16969;SDS011;8601;48.718;8.992;2023-02-10T07:41:22;35.10;;;23.33;;
16969;SDS011;8601;48.718;8.992;2023-02-10T07:43:49;31.20;;;22.80;;
16969;SDS011;8601;48.718;8.992;2023-02-10T07:46:16;33.37;;;22.10;;
16969;SDS011;8601;48.718;8.992;2023-02-10T07:48:43;35.73;;;22.97;;
16969;SDS011;8601;48.718;8.992;2023-02-10T07:51:10;32.40;;;22.93;;
16969;SDS011;8601;48.718;8.992;2023-02-10T07:53:37;35.23;;;23.37;;
16969;SDS011;8601;48.718;8.992;2023-02-10T07:56:05;31.40;;;21.63;;
16969;SDS011;8601;48.718;8.992;2023-02-10T07:58:32;32.10;;;21.87;;
16969;SDS011;8601;48.718;8.992;2023-02-10T08:00:59;47.53;;;29.00;;
16969;SDS011;8601;48.718;8.992;2023-02-10T08:03:31;40.87;;;25.03;;
16969;SDS011;8601;48.718;8.992;2023-02-10T08:05:57;34.53;;;22.87;;
16969;SDS011;8601;48.718;8.992;2023-02-10T08:08:24;29.20;;;21.13;;
16969;SDS011;8601;48.718;8.992;2023-02-10T08:10:51;34.27;;;22.50;;
16969;SDS011;8601;48.718;8.992;2023-02-10T08:13:20;30.33;;;21.90;;
16969;SDS011;8601;48.718;8.992;2023-02-10T08:15:46;30.83;;;21.67;;
16969;SDS011;8601;48.718;8.992;2023-02-10T08:18:13;33.70;;;22.73;;
16969;SDS011;8601;48.718;8.992;2023-02-10T08:20:41;33.10;;;22.27;;
16969;SDS011;8601;48.718;8.992;2023-02-10T08:23:09;34.47;;;23.47;;
16969;SDS011;8601;48.718;8.992;2023-02-10T08:25:41;32.80;;;23.73;;
16969;SDS011;8601;48.718;8.992;2023-02-10T08:28:08;36.27;;;24.23;;
16969;SDS011;8601;48.718;8.992;2023-02-10T08:30:37;36.37;;;24.60;;
16969;SDS011;8601;48.718;8.992;2023-02-10T08:33:03;35.40;;;22.77;;
16969;SDS011;8601;48.718;8.992;2023-02-10T08:35:31;32.17;;;21.30;;
16969;SDS011;8601;48.718;8.992;2023-02-10T08:38:00;29.67;;;20.77;;
16969;SDS011;8601;48.718;8.992;2023-02-10T08:40:27;32.10;;;20.23;;
16969;SDS011;8601;48.718;8.992;2023-02-10T08:42:54;29.47;;;20.97;;
16969;SDS011;8601;48.718;8.992;2023-02-10T08:45:21;30.50;;;19.63;;
16969;SDS011;8601;48.718;8.992;2023-02-10T08:47:50;28.90;;;21.10;;
16969;SDS011;8601;48.718;8.992;2023-02-10T08:50:18;30.20;;;21.07;;
16969;SDS011;8601;48.718;8.992;2023-02-10T08:52:45;32.03;;;22.93;;
16969;SDS011;8601;48.718;8.992;2023-02-10T08:55:13;30.60;;;21.07;;
16969;SDS011;8601;48.718;8.992;2023-02-10T08:57:40;30.53;;;22.27;;
16969;SDS011;8601;48.718;8.992;2023-02-10T09:00:07;32.07;;;22.13;;
16969;SDS011;8601;48.718;8.992;2023-02-10T09:02:35;32.23;;;21.97;;
16969;SDS011;8601;48.718;8.992;2023-02-10T09:05:04;28.87;;;20.90;;
16969;SDS011;8601;48.718;8.992;2023-02-10T09:07:31;29.93;;;20.70;;
16969;SDS011;8601;48.718;8.992;2023-02-10T09:09:59;30.90;;;21.03;;
16969;SDS011;8601;48.718;8.992;2023-02-10T09:12:26;35.00;;;22.87;;
16969;SDS011;8601;48.718;8.992;2023-02-10T09:14:53;34.63;;;23.97;;
16969;SDS011;8601;48.718;8.992;2023-02-10T09:17:20;31.50;;;21.10;;
16969;SDS011;8601;48.718;8.992;2023-02-10T09:19:47;32.83;;;22.27;;
16969;SDS011;8601;48.718;8.992;2023-02-10T09:22:15;34.23;;;22.40;;
16969;SDS011;8601;48.718;8.992;2023-02-10T09:24:42;34.03;;;20.50;;
16969;SDS011;8601;48.718;8.992;2023-02-10T09:27:12;30.57;;;21.23;;
16969;SDS011;8601;48.718;8.992;2023-02-10T09:29:40;29.77;;;21.83;;
16969;SDS011;8601;48.718;8.992;2023-02-10T09:32:07;34.97;;;22.27;;
16969;SDS011;8601;48.718;8.992;2023-02-10T09:34:35;33.17;;;22.17;;
16969;SDS011;8601;48.718;8.992;2023-02-10T09:37:02;28.93;;;22.00;;
16969;SDS011;8601;48.718;8.992;2023-02-10T09:39:32;32.63;;;21.87;;
16969;SDS011;8601;48.718;8.992;2023-02-10T09:42:01;30.60;;;22.17;;
16969;SDS011;8601;48.718;8.992;2023-02-10T09:44:34;29.73;;;21.70;;
16969;SDS011;8601;48.718;8.992;2023-02-10T09:47:20;33.50;;;22.00;;
16969;SDS011;8601;48.718;8.992;2023-02-10T09:50:17;33.97;;;21.27;;
16969;SDS011;8601;48.718;8.992;2023-02-10T09:52:57;30.77;;;21.53;;
16969;SDS011;8601;48.718;8.992;2023-02-10T09:55:34;29.53;;;21.97;;
16969;SDS011;8601;48.718;8.992;2023-02-10T09:58:05;30.50;;;21.47;;
16969;SDS011;8601;48.718;8.992;2023-02-10T10:00:40;29.40;;;20.50;;
16969;SDS011;8601;48.718;8.992;2023-02-10T10:03:11;28.80;;;20.57;;
16969;SDS011;8601;48.718;8.992;2023-02-10T10:05:44;30.17;;;21.43;;
16969;SDS011;8601;48.718;8.992;2023-02-10T10:08:17;29.93;;;21.67;;
16969;SDS011;8601;48.718;8.992;2023-02-10T10:10:51;28.73;;;22.40;;
16969;SDS011;8601;48.718;8.992;2023-02-10T10:13:21;27.27;;;20.40;;
16969;SDS011;8601;48.718;8.992;2023-02-10T10:15:56;29.37;;;19.83;;
16969;SDS011;8601;48.718;8.992;2023-02-10T10:18:33;29.33;;;20.77;;
16969;SDS011;8601;48.718;8.992;2023-02-10T10:21:09;27.97;;;19.97;;
16969;SDS011;8601;48.718;8.992;2023-02-10T10:23:45;26.80;;;19.53;;
16969;SDS011;8601;48.718;8.992;2023-02-10T10:26:23;25.73;;;19.07;;
16969;SDS011;8601;48.718;8.992;2023-02-10T10:29:12;27.70;;;20.30;;
16969;SDS011;8601;48.718;8.992;2023-02-10T10:31:51;26.33;;;19.20;;
16969;SDS011;8601;48.718;8.992;2023-02-10T10:34:25;26.60;;;17.90;;
16969;SDS011;8601;48.718;8.992;2023-02-10T10:36:56;27.30;;;19.30;;
16969;SDS011;8601;48.718;8.992;2023-02-10T10:39:26;28.80;;;19.97;;
16969;SDS011;8601;48.718;8.992;2023-02-10T10:42:01;25.50;;;19.10;;
16969;SDS011;8601;48.718;8.992;2023-02-10T10:44:42;23.07;;;18.13;;
16969;SDS011;8601;48.718;8.992;2023-02-10T10:47:12;22.53;;;17.23;;
16969;SDS011;8601;48.718;8.992;2023-02-10T10:49:43;30.50;;;17.47;;
16969;SDS011;8601;48.718;8.992;2023-02-10T10:52:17;18.97;;;15.00;;
16969;SDS011;8601;48.718;8.992;2023-02-10T10:54:53;22.97;;;17.07;;
16969;SDS011;8601;48.718;8.992;2023-02-10T10:57:22;21.53;;;16.37;;
16969;SDS011;8601;48.718;8.992;2023-02-10T10:59:52;22.07;;;15.70;;
16969;SDS011;8601;48.718;8.992;2023-02-10T11:02:22;20.53;;;15.60;;
16969;SDS011;8601;48.718;8.992;2023-02-10T11:04:59;17.57;;;13.53;;
16969;SDS011;8601;48.718;8.992;2023-02-10T11:07:26;16.60;;;13.37;;
16969;SDS011;8601;48.718;8.992;2023-02-10T11:09:56;19.43;;;15.23;;
16969;SDS011;8601;48.718;8.992;2023-02-10T11:12:27;18.63;;;15.40;;
16969;SDS011;8601;48.718;8.992;2023-02-10T11:14:57;16.70;;;13.50;;
16969;SDS011;8601;48.718;8.992;2023-02-10T11:17:26;17.77;;;13.33;;
16969;SDS011;8601;48.718;8.992;2023-02-10T11:19:59;15.80;;;12.63;;
16969;SDS011;8601;48.718;8.992;2023-02-10T11:22:27;15.87;;;12.80;;
16969;SDS011;8601;48.718;8.992;2023-02-10T11:24:55;17.90;;;13.57;;
16969;SDS011;8601;48.718;8.992;2023-02-10T11:27:23;21.03;;;14.10;;
16969;SDS011;8601;48.718;8.992;2023-02-10T11:29:52;18.30;;;13.60;;
16969;SDS011;8601;48.718;8.992;2023-02-10T11:32:21;15.77;;;13.30;;
16969;SDS011;8601;48.718;8.992;2023-02-10T11:34:50;17.57;;;14.17;;
16969;SDS011;8601;48.718;8.992;2023-02-10T11:37:20;17.70;;;13.77;;
16969;SDS011;8601;48.718;8.992;2023-02-10T11:39:50;18.57;;;13.97;;
16969;SDS011;8601;48.718;8.992;2023-02-10T11:42:20;20.23;;;15.53;;
16969;SDS011;8601;48.718;8.992;2023-02-10T11:44:54;18.97;;;14.77;;
16969;SDS011;8601;48.718;8.992;2023-02-10T11:47:24;16.60;;;14.13;;
16969;SDS011;8601;48.718;8.992;2023-02-10T11:49:52;18.43;;;15.00;;
16969;SDS011;8601;48.718;8.992;2023-02-10T11:52:21;14.33;;;11.40;;
16969;SDS011;8601;48.718;8.992;2023-02-10T11:54:50;20.53;;;16.27;;
16969;SDS011;8601;48.718;8.992;2023-02-10T11:57:30;22.07;;;15.67;;
16969;SDS011;8601;48.718;8.992;2023-02-10T12:00:25;18.53;;;15.83;;
16969;SDS011;8601;48.718;8.992;2023-02-10T12:03:06;20.10;;;15.00;;
16969;SDS011;8601;48.718;8.992;2023-02-10T12:05:47;20.53;;;15.50;;
16969;SDS011;8601;48.718;8.992;2023-02-10T12:08:21;18.43;;;14.57;;
16969;SDS011;8601;48.718;8.992;2023-02-10T12:10:56;16.67;;;14.17;;
16969;SDS011;8601;48.718;8.992;2023-02-10T12:13:31;20.17;;;14.10;;
16969;SDS011;8601;48.718;8.992;2023-02-10T12:16:09;17.90;;;14.23;;
16969;SDS011;8601;48.718;8.992;2023-02-10T12:18:50;16.93;;;13.70;;
16969;SDS011;8601;48.718;8.992;2023-02-10T12:24:23;17.07;;;13.67;;
16969;SDS011;8601;48.718;8.992;2023-02-10T12:26:59;17.43;;;13.60;;
16969;SDS011;8601;48.718;8.992;2023-02-10T12:29:34;18.33;;;14.40;;
16969;SDS011;8601;48.718;8.992;2023-02-10T12:32:13;18.27;;;13.80;;
16969;SDS011;8601;48.718;8.992;2023-02-10T12:34:53;16.37;;;13.53;;
16969;SDS011;8601;48.718;8.992;2023-02-10T12:37:34;18.73;;;15.38;;
16969;SDS011;8601;48.718;8.992;2023-02-10T12:40:16;17.63;;;14.20;;
16969;SDS011;8601;48.718;8.992;2023-02-10T12:42:51;18.70;;;14.07;;
16969;SDS011;8601;48.718;8.992;2023-02-10T12:45:24;17.00;;;13.97;;
16969;SDS011;8601;48.718;8.992;2023-02-10T12:48:00;15.57;;;12.53;;
16969;SDS011;8601;48.718;8.992;2023-02-10T12:50:39;17.87;;;13.70;;
16969;SDS011;8601;48.718;8.992;2023-02-10T12:53:13;19.43;;;14.50;;
16969;SDS011;8601;48.718;8.992;2023-02-10T12:55:44;19.27;;;14.20;;
16969;SDS011;8601;48.718;8.992;2023-02-10T12:58:21;18.00;;;13.50;;
16969;SDS011;8601;48.718;8.992;2023-02-10T13:00:53;18.30;;;13.13;;
16969;SDS011;8601;48.718;8.992;2023-02-10T13:03:32;19.67;;;14.10;;
16969;SDS011;8601;48.718;8.992;2023-02-10T13:06:05;18.23;;;14.17;;
16969;SDS011;8601;48.718;8.992;2023-02-10T13:08:47;17.63;;;13.10;;
16969;SDS011;8601;48.718;8.992;2023-02-10T13:11:20;17.47;;;13.03;;
16969;SDS011;8601;48.718;8.992;2023-02-10T13:13:55;16.53;;;13.17;;
16969;SDS011;8601;48.718;8.992;2023-02-10T13:16:26;17.57;;;14.20;;
16969;SDS011;8601;48.718;8.992;2023-02-10T13:18:59;21.23;;;14.80;;
16969;SDS011;8601;48.718;8.992;2023-02-10T13:21:34;19.10;;;14.47;;
16969;SDS011;8601;48.718;8.992;2023-02-10T13:24:06;17.27;;;14.13;;
16969;SDS011;8601;48.718;8.992;2023-02-10T13:26:51;17.87;;;14.50;;
16969;SDS011;8601;48.718;8.992;2023-02-10T13:29:29;18.90;;;14.37;;
16969;SDS011;8601;48.718;8.992;2023-02-10T13:32:10;18.20;;;13.50;;
16969;SDS011;8601;48.718;8.992;2023-02-10T13:34:50;18.33;;;13.30;;
16969;SDS011;8601;48.718;8.992;2023-02-10T13:37:21;18.70;;;14.97;;
16969;SDS011;8601;48.718;8.992;2023-02-10T13:39:55;17.07;;;13.50;;
16969;SDS011;8601;48.718;8.992;2023-02-10T13:42:26;18.53;;;13.93;;
16969;SDS011;8601;48.718;8.992;2023-02-10T13:44:58;19.87;;;13.97;;
16969;SDS011;8601;48.718;8.992;2023-02-10T13:47:29;21.20;;;14.73;;
16969;SDS011;8601;48.718;8.992;2023-02-10T13:50:04;19.13;;;14.87;;
16969;SDS011;8601;48.718;8.992;2023-02-10T13:52:48;21.47;;;16.17;;
16969;SDS011;8601;48.718;8.992;2023-02-10T13:55:27;21.30;;;15.57;;
16969;SDS011;8601;48.718;8.992;2023-02-10T13:58:23;19.90;;;14.57;;
16969;SDS011;8601;48.718;8.992;2023-02-10T14:00:56;20.17;;;15.67;;
16969;SDS011;8601;48.718;8.992;2023-02-10T14:03:24;17.30;;;14.70;;
16969;SDS011;8601;48.718;8.992;2023-02-10T14:05:54;23.10;;;15.60;;
16969;SDS011;8601;48.718;8.992;2023-02-10T14:08:31;21.70;;;15.17;;
16969;SDS011;8601;48.718;8.992;2023-02-10T14:11:02;21.77;;;14.40;;
16969;SDS011;8601;48.718;8.992;2023-02-10T14:13:31;19.73;;;14.80;;
16969;SDS011;8601;48.718;8.992;2023-02-10T14:16:01;20.93;;;15.37;;
16969;SDS011;8601;48.718;8.992;2023-02-10T14:18:32;18.03;;;14.30;;
16969;SDS011;8601;48.718;8.992;2023-02-10T14:21:02;23.27;;;15.37;;
16969;SDS011;8601;48.718;8.992;2023-02-10T14:23:32;24.40;;;15.77;;
16969;SDS011;8601;48.718;8.992;2023-02-10T14:26:01;21.73;;;16.47;;
16969;SDS011;8601;48.718;8.992;2023-02-10T14:28:31;20.93;;;15.60;;
16969;SDS011;8601;48.718;8.992;2023-02-10T14:31:01;23.03;;;16.87;;
16969;SDS011;8601;48.718;8.992;2023-02-10T14:33:34;21.03;;;17.03;;
16969;SDS011;8601;48.718;8.992;2023-02-10T14:36:06;22.03;;;16.57;;
16969;SDS011;8601;48.718;8.992;2023-02-10T14:38:42;22.90;;;16.63;;
16969;SDS011;8601;48.718;8.992;2023-02-10T14:41:12;22.77;;;17.47;;
16969;SDS011;8601;48.718;8.992;2023-02-10T14:43:40;22.27;;;18.03;;
16969;SDS011;8601;48.718;8.992;2023-02-10T14:46:08;24.47;;;18.67;;
16969;SDS011;8601;48.718;8.992;2023-02-10T14:48:44;23.13;;;16.97;;
16969;SDS011;8601;48.718;8.992;2023-02-10T14:51:19;22.17;;;17.33;;
16969;SDS011;8601;48.718;8.992;2023-02-10T14:53:47;21.63;;;17.73;;
16969;SDS011;8601;48.718;8.992;2023-02-10T14:56:19;21.73;;;16.93;;
16969;SDS011;8601;48.718;8.992;2023-02-10T14:58:49;23.50;;;18.03;;
16969;SDS011;8601;48.718;8.992;2023-02-10T15:01:18;23.33;;;17.07;;